Terminal Aerodrome Forecast
Issued by NWS Wilmington, OH

Current Version | Previous Version | Graphics & Text | Print | Product List | Glossary On
Versions: 1 2 3 4 5 6 7 8 9 10 11 12 13 14 15 16 17 18
581
FTUS41 KILN 092225 AAA
TAFCMH
TAF AMD
KCMH 092225Z 0922/1018 26012KT 5SM -SHSN BKN015 OVC025
     FM100000 28010KT P6SM VCSH SCT015 OVC025
     FM101000 28012G20KT 4SM -SHSN BKN015 OVC025=

USA.gov is the U.S. government's official web portal to all federal, state and local government web resources and services.